Terminal Aerodrome Forecast
Issued by NWS

Home | Current Version | Previous Version | Text Only | Print | Product List | Glossary On
Versions: 1 2 3 4 5 6 7 8 9 10 11 12 13 14 15 16 17 18 19 20 21 22 23 24 25 26 27 28 29 30
000
FTAK31 PANC 222320
TAFADL
TAF
PADL 222320Z 2300/2324 12013KT 1 1/2SM -SN BR BKN008 OVC015
      TEMPO 2300/2304 1/2SM SN FG SCT008 OVC015
     FM230800 18006KT 3SM -SHSN BKN005 OVC010
     FM231600 36013G21KT 5SM -SHSN BKN015 OVC025
     FM232000 32015G24KT P6SM SCT020 BKN040=

USA.gov is the U.S. government's official web portal to all federal, state and local government web resources and services.